createdAt,value
2019-05-25T00:00:37.514Z,100692.71
2019-05-25T00:03:06.181Z,100692.59
2019-05-25T00:05:34.879Z,100689.53
2019-05-25T00:08:03.568Z,100687.70
2019-05-25T00:10:32.163Z,100690.91
2019-05-25T00:13:00.791Z,100692.44
2019-05-25T00:15:29.451Z,100696.19
2019-05-25T00:17:58.175Z,100696.92
2019-05-25T00:20:26.760Z,100702.91
2019-05-25T00:22:55.357Z,100702.01
2019-05-25T00:25:23.952Z,100702.17
2019-05-25T00:27:52.562Z,100701.63
2019-05-25T00:30:21.245Z,100702.70
2019-05-25T00:32:49.836Z,100708.59
2019-05-25T00:35:18.457Z,100710.18
2019-05-25T00:37:47.168Z,100714.36
2019-05-25T00:40:15.754Z,100706.31
2019-05-25T00:42:44.368Z,100712.66
2019-05-25T00:45:13.026Z,100709.16
2019-05-25T00:47:41.666Z,100715.66
2019-05-25T00:50:10.707Z,100717.50
2019-05-25T00:52:39.332Z,100717.85
2019-05-25T00:55:08.665Z,100718.48
2019-05-25T00:57:37.286Z,100716.83
2019-05-25T01:00:08.999Z,100718.52
2019-05-25T01:02:39.680Z,100720.67
2019-05-25T01:05:08.394Z,100717.50
2019-05-25T01:07:36.997Z,100719.14
2019-05-25T01:10:07.232Z,100716.73
2019-05-25T01:12:35.839Z,100723.12
2019-05-25T01:15:10.584Z,100723.69
2019-05-25T01:17:39.303Z,100732.33
2019-05-25T01:20:31.503Z,100731.16
2019-05-25T01:23:00.100Z,100735.22
2019-05-25T01:25:28.731Z,100733.94
2019-05-25T01:27:57.365Z,100728.50
2019-05-25T01:30:26.031Z,100732.50
2019-05-25T01:32:54.639Z,100734.38
2019-05-25T01:35:23.212Z,100742.50
2019-05-25T01:37:51.879Z,100727.48
2019-05-25T01:40:20.814Z,100731.63
2019-05-25T01:42:49.424Z,100736.23
2019-05-25T01:45:18.082Z,100731.98
2019-05-25T01:47:46.722Z,100730.47
2019-05-25T01:50:15.305Z,100734.78
2019-05-25T01:52:43.941Z,100734.60
2019-05-25T01:55:12.522Z,100733.97
2019-05-25T01:57:41.143Z,100734.30
2019-05-25T02:00:10.770Z,100733.29
2019-05-25T02:02:39.369Z,100726.52
2019-05-25T02:05:08.393Z,100738.84
2019-05-25T02:07:37.025Z,100732.81
2019-05-25T02:10:08.116Z,100743.81
2019-05-25T02:12:36.724Z,100742.23
2019-05-25T02:15:09.385Z,100742.86
2019-05-25T02:17:38.012Z,100745.56
2019-05-25T02:20:10.871Z,100744.88
2019-05-25T02:22:39.553Z,100746.58
2019-05-25T02:25:17.822Z,100746.31
2019-05-25T02:27:39.477Z,100751.75
2019-05-25T02:30:10.067Z,100752.02
2019-05-25T02:32:40.384Z,100758.90
2019-05-25T02:35:10.766Z,100757.77
2019-05-25T02:37:39.428Z,100754.31
2019-05-25T02:40:08.485Z,100759.63
2019-05-25T02:42:37.256Z,100754.14
2019-05-25T02:45:09.220Z,100754.21
2019-05-25T02:47:37.808Z,100757.33
2019-05-25T02:50:07.573Z,100753.59
2019-05-25T02:52:36.278Z,100753.25
2019-05-25T02:55:07.402Z,100753.71
2019-05-25T02:57:36.030Z,100752.52
2019-05-25T03:00:09.130Z,100758.76
2019-05-25T03:02:37.889Z,100759.22
2019-05-25T03:05:09.045Z,100757.62
2019-05-25T03:07:38.470Z,100760.52
2019-05-25T03:10:07.608Z,100766.06
2019-05-25T03:12:36.308Z,100764.80
2019-05-25T03:15:09.407Z,100770.00
2019-05-25T03:17:38.068Z,100776.75
2019-05-25T03:20:07.125Z,100777.37
2019-05-25T03:22:35.880Z,100767.25
2019-05-25T03:25:07.262Z,100779.45
2019-05-25T03:27:35.909Z,100778.09
2019-05-25T03:30:06.449Z,100778.12
2019-05-25T03:32:35.084Z,100781.50
2019-05-25T03:35:05.770Z,100782.22
2019-05-25T03:37:34.415Z,100786.00
2019-05-25T03:40:04.042Z,100780.38
2019-05-25T03:42:32.717Z,100782.58
2019-05-25T03:45:01.302Z,100781.58
2019-05-25T03:47:29.954Z,100791.78
2019-05-25T03:49:58.529Z,100784.12
2019-05-25T03:52:27.143Z,100783.59
2019-05-25T03:54:55.747Z,100784.42
2019-05-25T03:57:24.368Z,100786.24
2019-05-25T03:59:53.053Z,100787.17
2019-05-25T04:02:21.681Z,100790.83
2019-05-25T04:04:50.309Z,100788.48
2019-05-25T04:07:18.886Z,100787.54
2019-05-25T04:09:47.503Z,100786.69
2019-05-25T04:12:16.091Z,100782.42
2019-05-25T04:14:44.703Z,100786.14
2019-05-25T04:17:13.299Z,100793.02
2019-05-25T04:19:41.972Z,100790.03
2019-05-25T04:22:10.552Z,100789.45
2019-05-25T04:24:39.194Z,100787.72
2019-05-25T04:27:07.783Z,100786.57
2019-05-25T04:29:36.397Z,100788.36
2019-05-25T04:32:05.106Z,100795.99
2019-05-25T04:34:33.764Z,100808.20
2019-05-25T04:37:04.030Z,100799.90
2019-05-25T04:39:32.678Z,100801.00
2019-05-25T04:42:01.268Z,100804.88
2019-05-25T04:44:29.902Z,100806.18
2019-05-25T04:46:58.488Z,100818.91
2019-05-25T04:49:27.161Z,100822.29
2019-05-25T04:51:55.842Z,100825.09
2019-05-25T04:54:24.476Z,100831.54
2019-05-25T04:56:53.140Z,100828.69
2019-05-25T04:59:21.781Z,100831.56
2019-05-25T05:01:50.387Z,100831.25
2019-05-25T05:04:19.003Z,100831.66
2019-05-25T05:06:47.601Z,100838.67
2019-05-25T05:09:16.286Z,100834.93
2019-05-25T05:11:44.907Z,100835.45
2019-05-25T05:14:13.517Z,100837.13
2019-05-25T05:16:42.265Z,100844.81
2019-05-25T05:19:10.939Z,100839.67
2019-05-25T05:21:39.521Z,100839.54
2019-05-25T05:24:08.143Z,100835.67
2019-05-25T05:26:36.752Z,100839.48
2019-05-25T05:29:05.465Z,100841.67
2019-05-25T05:31:34.054Z,100840.75
2019-05-25T05:34:11.538Z,100835.81
2019-05-25T05:36:40.278Z,100845.50
2019-05-25T05:39:09.231Z,100840.77
2019-05-25T05:41:39.254Z,100844.27
2019-05-25T05:44:08.273Z,100836.39
2019-05-25T05:46:41.120Z,100842.86
2019-05-25T05:49:10.665Z,100846.87
2019-05-25T05:51:39.941Z,100853.30
2019-05-25T05:54:08.511Z,100851.21
2019-05-25T05:56:37.140Z,100850.45
2019-05-25T05:59:05.708Z,100848.27
2019-05-25T06:01:34.339Z,100852.98
2019-05-25T06:04:02.949Z,100856.42
2019-05-25T06:06:31.596Z,100854.95
2019-05-25T06:09:00.190Z,100857.00
2019-05-25T06:11:28.855Z,100857.64
2019-05-25T06:13:57.459Z,100861.71
2019-05-25T06:16:26.069Z,100865.23
2019-05-25T06:18:54.776Z,100865.64
2019-05-25T06:21:23.541Z,100871.23
2019-05-25T06:23:54.100Z,100880.77
2019-05-25T06:26:22.770Z,100874.79
2019-05-25T06:28:51.440Z,100875.25
2019-05-25T06:31:20.033Z,100882.27
2019-05-25T06:33:48.709Z,100882.88
2019-05-25T06:36:17.287Z,100886.77
2019-05-25T06:38:46.033Z,100891.60
2019-05-25T06:41:14.611Z,100890.28
2019-05-25T06:43:43.246Z,100900.73
2019-05-25T06:46:11.810Z,100897.89
2019-05-25T06:48:40.796Z,100894.47
2019-05-25T06:51:09.374Z,100903.04
2019-05-25T06:53:38.035Z,100904.34
2019-05-25T06:56:06.702Z,100906.36
2019-05-25T06:58:35.359Z,100919.58
2019-05-25T07:01:03.920Z,100915.39
2019-05-25T07:03:32.593Z,100921.52
2019-05-25T07:06:01.194Z,100921.90
2019-05-25T07:08:29.822Z,100920.58
2019-05-25T07:10:58.470Z,100925.09
2019-05-25T07:13:28.576Z,100923.57
2019-05-25T07:15:57.449Z,100929.79
2019-05-25T07:18:26.111Z,100930.55
2019-05-25T07:20:54.701Z,100932.56
2019-05-25T07:23:24.889Z,100926.06
2019-05-25T07:25:53.541Z,100923.48
2019-05-25T07:28:22.137Z,100927.20
2019-05-25T07:30:50.757Z,100928.39
2019-05-25T07:33:19.427Z,100931.70
2019-05-25T07:35:48.023Z,100928.51
2019-05-25T07:38:16.637Z,100932.27
2019-05-25T07:40:45.298Z,100927.77
2019-05-25T07:43:13.943Z,100925.36
2019-05-25T07:45:43.315Z,100928.33
2019-05-25T07:48:11.933Z,100923.25
2019-05-25T07:50:40.532Z,100930.14
2019-05-25T07:53:09.167Z,100928.46
2019-05-25T07:55:37.853Z,100929.28
2019-05-25T07:58:16.531Z,100932.04
2019-05-25T08:00:36.805Z,100935.23
2019-05-25T08:03:05.545Z,100935.92
2019-05-25T08:05:34.167Z,100937.56
2019-05-25T08:08:03.624Z,100947.53
2019-05-25T08:10:32.458Z,100950.64
2019-05-25T08:13:01.099Z,100945.72
2019-05-25T08:15:29.666Z,100954.91
2019-05-25T08:17:58.278Z,100952.61
2019-05-25T08:20:26.874Z,100949.04
2019-05-25T08:22:55.529Z,100948.39
2019-05-25T08:25:24.200Z,100956.48
2019-05-25T08:27:52.796Z,100957.39
2019-05-25T08:30:21.562Z,100950.84
2019-05-25T08:32:50.317Z,100964.52
2019-05-25T08:35:18.974Z,100965.04
2019-05-25T08:37:47.593Z,100969.27
2019-05-25T08:40:16.184Z,100963.78
2019-05-25T08:42:44.772Z,100964.90
2019-05-25T08:45:13.555Z,100962.95
2019-05-25T08:47:42.234Z,100965.47
2019-05-25T08:50:11.138Z,100965.00
2019-05-25T08:52:39.795Z,100968.35
2019-05-25T08:55:08.554Z,100961.63
2019-05-25T08:57:37.245Z,100974.06
2019-05-25T09:00:07.302Z,100974.12
2019-05-25T09:02:35.965Z,100973.04
2019-05-25T09:05:06.664Z,100969.23
2019-05-25T09:07:35.263Z,100977.06
2019-05-25T09:10:07.601Z,100975.56
2019-05-25T09:12:36.277Z,100973.66
2019-05-25T09:15:06.559Z,100976.23
2019-05-25T09:17:35.145Z,100982.71
2019-05-25T09:20:08.209Z,100987.30
2019-05-25T09:22:36.830Z,100982.64
2019-05-25T09:25:07.209Z,100978.33
2019-05-25T09:27:35.841Z,100986.38
2019-05-25T09:30:09.139Z,100988.31
2019-05-25T09:32:37.760Z,100983.75
2019-05-25T09:35:08.830Z,100993.95
2019-05-25T09:37:37.458Z,101003.31
2019-05-25T09:40:07.181Z,100999.91
2019-05-25T09:42:35.737Z,100997.02
2019-05-25T09:45:06.671Z,101007.44
2019-05-25T09:47:35.337Z,101003.60
2019-05-25T09:50:07.544Z,100999.41
2019-05-25T09:52:36.203Z,101001.39
2019-05-25T09:55:09.288Z,100989.95
2019-05-25T09:57:41.404Z,100995.93
2019-05-25T10:00:14.054Z,100994.92
2019-05-25T10:02:43.548Z,100993.30
2019-05-25T10:05:12.991Z,100995.91
2019-05-25T10:07:41.668Z,100996.30
2019-05-25T10:10:11.893Z,100998.44
2019-05-25T10:12:40.493Z,100998.39
2019-05-25T10:15:09.271Z,100996.73
2019-05-25T10:17:37.923Z,100990.63
2019-05-25T10:20:06.939Z,100988.26
2019-05-25T10:22:35.561Z,100987.08
2019-05-25T10:25:08.611Z,100988.17
2019-05-25T10:27:37.289Z,100993.84
2019-05-25T10:30:07.808Z,100987.60
2019-05-25T10:32:36.577Z,100986.17
2019-05-25T10:35:09.290Z,100989.39
2019-05-25T10:37:38.065Z,100993.59
2019-05-25T10:40:07.779Z,100990.80
2019-05-25T10:42:36.458Z,100991.67
2019-05-25T10:45:09.029Z,100993.05
2019-05-25T10:47:37.638Z,100992.86
2019-05-25T10:50:10.078Z,100986.96
2019-05-25T10:52:38.777Z,100988.41
2019-05-25T10:55:08.816Z,100994.83
2019-05-25T10:57:38.370Z,100995.03
2019-05-25T11:00:08.484Z,100991.26
2019-05-25T11:02:37.173Z,100991.28
2019-05-25T11:05:08.445Z,100999.66
2019-05-25T11:07:37.138Z,100996.81
2019-05-25T11:10:17.607Z,100988.03
2019-05-25T11:13:05.836Z,100991.98
2019-05-25T11:15:34.513Z,100996.75
2019-05-25T11:18:03.184Z,100993.15
2019-05-25T11:20:32.049Z,100994.47
2019-05-25T11:23:00.616Z,100990.70
2019-05-25T11:25:29.279Z,100999.88
2019-05-25T11:27:57.880Z,100999.12
2019-05-25T11:30:26.561Z,100996.78
2019-05-25T11:32:55.207Z,100990.12
2019-05-25T11:35:25.415Z,100991.94
2019-05-25T11:37:55.677Z,100989.33
2019-05-25T11:40:25.004Z,100992.53
2019-05-25T11:42:53.627Z,100991.83
2019-05-25T11:45:22.276Z,100985.78
2019-05-25T11:47:50.883Z,100991.98
2019-05-25T11:50:26.235Z,100990.91
2019-05-25T11:53:03.210Z,100984.66
2019-05-25T11:55:31.385Z,100993.83
2019-05-25T11:57:59.961Z,100981.48
2019-05-25T12:00:28.717Z,100986.50
2019-05-25T12:02:57.490Z,100992.86
2019-05-25T12:05:26.554Z,100992.08
2019-05-25T12:07:55.189Z,100990.19
2019-05-25T12:10:23.854Z,100981.89
2019-05-25T12:12:52.456Z,100983.86
2019-05-25T12:15:21.288Z,100983.55
2019-05-25T12:17:49.931Z,100982.66
2019-05-25T12:20:19.077Z,100982.72
2019-05-25T12:22:53.664Z,100979.03
2019-05-25T12:25:35.014Z,100983.80
2019-05-25T12:28:14.248Z,100981.48
2019-05-25T12:30:42.953Z,100980.22
2019-05-25T12:33:11.651Z,100973.17
2019-05-25T12:35:40.652Z,100969.95
2019-05-25T12:38:09.433Z,100966.02
2019-05-25T12:40:52.431Z,100974.88
2019-05-25T12:43:08.328Z,100973.50
2019-05-25T12:45:36.997Z,100976.00
2019-05-25T12:48:05.556Z,100973.95
2019-05-25T12:50:34.185Z,100968.52
2019-05-25T12:53:02.873Z,100975.19
2019-05-25T12:55:31.535Z,100969.19
2019-05-25T12:58:00.120Z,100965.85
2019-05-25T13:00:28.754Z,100967.77
2019-05-25T13:02:57.329Z,100964.39
2019-05-25T13:05:34.144Z,100957.35
2019-05-25T13:07:56.330Z,100959.05
2019-05-25T13:10:24.929Z,100955.85
2019-05-25T13:12:53.514Z,100957.55
2019-05-25T13:15:22.188Z,100961.31
2019-05-25T13:17:50.772Z,100964.32
2019-05-25T13:20:19.449Z,100955.09
2019-05-25T13:22:48.062Z,100964.60
2019-05-25T13:25:16.730Z,100963.03
2019-05-25T13:27:45.340Z,100965.23
2019-05-25T13:30:13.963Z,100957.80
2019-05-25T13:32:42.552Z,100963.92
2019-05-25T13:35:11.306Z,100959.28
2019-05-25T13:37:39.896Z,100953.17
2019-05-25T13:40:09.741Z,100952.27
2019-05-25T13:42:38.306Z,100955.21
2019-05-25T13:45:09.756Z,100947.70
2019-05-25T13:47:38.349Z,100959.10
2019-05-25T13:50:08.537Z,100954.15
2019-05-25T13:52:37.132Z,100953.41
2019-05-25T13:55:07.309Z,100954.31
2019-05-25T13:57:35.891Z,100951.45
2019-05-25T14:00:06.758Z,100955.52
2019-05-25T14:02:35.414Z,100957.88
2019-05-25T14:05:05.995Z,100964.15
2019-05-25T14:07:34.577Z,100969.19
2019-05-25T14:10:04.164Z,100961.36
2019-05-25T14:12:32.755Z,100971.23
2019-05-25T14:15:01.435Z,100972.11
2019-05-25T14:17:30.077Z,100973.27
2019-05-25T14:19:58.669Z,100970.41
2019-05-25T14:22:27.264Z,100976.13
2019-05-25T14:24:55.881Z,100972.95
2019-05-25T14:27:24.462Z,100974.69
2019-05-25T14:29:53.049Z,100962.37
2019-05-25T14:32:21.641Z,100964.48
2019-05-25T14:34:50.241Z,100968.07
2019-05-25T14:37:18.826Z,100957.01
2019-05-25T14:39:47.462Z,100968.13
2019-05-25T14:42:16.042Z,100967.49
2019-05-25T14:44:44.644Z,100970.91
2019-05-25T14:47:13.232Z,100968.41
2019-05-25T14:49:41.875Z,100965.15
2019-05-25T14:52:10.456Z,100967.73
2019-05-25T14:54:39.038Z,100967.89
2019-05-25T14:57:07.623Z,100969.59
2019-05-25T14:59:36.282Z,100968.64
2019-05-25T15:02:04.932Z,100970.57
2019-05-25T15:04:33.544Z,100965.22
2019-05-25T15:07:02.204Z,100968.73
2019-05-25T15:09:30.797Z,100967.35
2019-05-25T15:11:59.385Z,100967.73
2019-05-25T15:14:28.021Z,100962.20
2019-05-25T15:16:56.609Z,100965.80
2019-05-25T15:19:25.316Z,100965.63
2019-05-25T15:21:54.318Z,100955.95
2019-05-25T15:24:23.178Z,100963.35
2019-05-25T15:26:51.740Z,100954.95
2019-05-25T15:29:20.347Z,100956.19
2019-05-25T15:31:48.977Z,100950.63
2019-05-25T15:34:17.577Z,100947.39
2019-05-25T15:36:46.187Z,100953.25
2019-05-25T15:39:14.847Z,100952.37
2019-05-25T15:41:43.475Z,100956.02
2019-05-25T15:44:12.157Z,100958.94
2019-05-25T15:46:40.779Z,100956.94
2019-05-25T15:49:09.442Z,100953.75
2019-05-25T15:51:38.007Z,100953.31
2019-05-25T15:54:10.381Z,100949.36
2019-05-25T15:56:36.973Z,100963.02
2019-05-25T15:59:05.681Z,100962.99
2019-05-25T16:01:34.246Z,100963.71
2019-05-25T16:04:04.513Z,100960.69
2019-05-25T16:06:33.076Z,100964.48
2019-05-25T16:09:01.813Z,100963.71
2019-05-25T16:11:32.316Z,100968.33
2019-05-25T16:14:00.844Z,100974.17
2019-05-25T16:16:30.125Z,100970.81
2019-05-25T16:18:59.249Z,100972.42
2019-05-25T16:21:27.817Z,100969.13
2019-05-25T16:23:56.436Z,100972.66
2019-05-25T16:26:25.025Z,100957.97
2019-05-25T16:28:53.674Z,100970.80
2019-05-25T16:31:22.308Z,100974.16
2019-05-25T16:33:50.942Z,100968.63
2019-05-25T16:36:19.504Z,100960.26
2019-05-25T16:38:48.184Z,100967.53
2019-05-25T16:41:16.747Z,100971.64
2019-05-25T16:43:45.411Z,100972.38
2019-05-25T16:46:14.042Z,100971.20
2019-05-25T16:48:42.713Z,100970.55
2019-05-25T16:51:11.290Z,100970.88
2019-05-25T16:53:39.902Z,100963.80
2019-05-25T16:56:08.460Z,100960.92
2019-05-25T16:58:37.175Z,100964.28
2019-05-25T17:01:05.814Z,100962.03
2019-05-25T17:03:35.040Z,100959.23
2019-05-25T17:06:03.676Z,100963.55
2019-05-25T17:08:32.283Z,100957.49
2019-05-25T17:11:00.850Z,100954.89
2019-05-25T17:13:29.469Z,100953.09
2019-05-25T17:15:58.031Z,100957.18
2019-05-25T17:18:27.043Z,100966.77
2019-05-25T17:20:55.607Z,100955.46
2019-05-25T17:23:24.249Z,100960.98
2019-05-25T17:25:52.835Z,100956.02
2019-05-25T17:28:21.519Z,100956.51
2019-05-25T17:30:50.078Z,100951.80
2019-05-25T17:33:18.737Z,100959.18
2019-05-25T17:35:47.373Z,100954.61
2019-05-25T17:38:16.014Z,100953.67
2019-05-25T17:40:44.652Z,100954.33
2019-05-25T17:43:13.354Z,100959.08
2019-05-25T17:45:41.923Z,100959.80
2019-05-25T17:48:10.951Z,100957.91
2019-05-25T17:50:39.521Z,100960.58
2019-05-25T17:53:08.171Z,100965.64
2019-05-25T17:55:36.733Z,100963.55
2019-05-25T17:58:05.545Z,100969.24
2019-05-25T18:00:42.751Z,100964.95
2019-05-25T18:03:11.474Z,100956.41
2019-05-25T18:05:40.108Z,100954.52
2019-05-25T18:08:09.864Z,100961.24
2019-05-25T18:10:52.142Z,100956.36
2019-05-25T18:13:08.958Z,100955.22
2019-05-25T18:15:37.569Z,100954.42
2019-05-25T18:18:07.188Z,100965.34
2019-05-25T18:20:35.906Z,100961.08
2019-05-25T18:23:04.926Z,100964.34
2019-05-25T18:25:33.646Z,100963.19
2019-05-25T18:28:02.268Z,100961.64
2019-05-25T18:30:31.079Z,100954.73
2019-05-25T18:32:59.665Z,100957.11
2019-05-25T18:35:28.384Z,100961.63
2019-05-25T18:37:56.972Z,100964.45
2019-05-25T18:40:25.640Z,100967.41
2019-05-25T18:42:54.239Z,100968.80
2019-05-25T18:45:23.032Z,100968.53
2019-05-25T18:47:51.720Z,100962.87
2019-05-25T18:50:20.748Z,100961.38
2019-05-25T18:52:49.444Z,100969.22
2019-05-25T18:55:18.572Z,100964.00
2019-05-25T18:57:47.182Z,100967.09
2019-05-25T19:00:15.909Z,100968.47
2019-05-25T19:02:44.531Z,100966.39
2019-05-25T19:05:13.265Z,100972.13
2019-05-25T19:07:41.933Z,100967.91
2019-05-25T19:10:10.969Z,100975.55
2019-05-25T19:12:39.648Z,100971.28
2019-05-25T19:15:09.769Z,100973.88
2019-05-25T19:17:38.453Z,100979.37
2019-05-25T19:20:07.917Z,100983.65
2019-05-25T19:22:36.550Z,100981.97
2019-05-25T19:25:09.349Z,100981.92
2019-05-25T19:27:37.985Z,100983.05
2019-05-25T19:30:07.817Z,100980.45
2019-05-25T19:32:36.502Z,100986.06
2019-05-25T19:35:06.220Z,100988.81
2019-05-25T19:37:34.816Z,100989.52
2019-05-25T19:40:08.657Z,100983.54
2019-05-25T19:42:35.169Z,100993.77
2019-05-25T19:45:05.226Z,100992.13
2019-05-25T19:47:33.829Z,100994.99
2019-05-25T19:50:05.127Z,100997.75
2019-05-25T19:52:32.809Z,100994.69
2019-05-25T19:55:01.353Z,100993.13
2019-05-25T19:57:30.109Z,100995.29
2019-05-25T19:59:58.678Z,100993.39
2019-05-25T20:02:27.302Z,100993.99
2019-05-25T20:04:55.872Z,100999.35
2019-05-25T20:07:24.513Z,100996.45
2019-05-25T20:09:53.153Z,101003.64
2019-05-25T20:12:21.779Z,100995.33
2019-05-25T20:14:50.776Z,100992.53
2019-05-25T20:17:19.422Z,100993.56
2019-05-25T20:19:48.027Z,100994.29
2019-05-25T20:22:16.652Z,100991.19
2019-05-25T20:24:45.220Z,100991.98
2019-05-25T20:27:13.857Z,101005.19
2019-05-25T20:29:42.414Z,100998.06
2019-05-25T20:32:11.038Z,100999.67
2019-05-25T20:34:39.628Z,101011.06
2019-05-25T20:37:08.246Z,101014.02
2019-05-25T20:39:36.950Z,101004.56
2019-05-25T20:42:05.658Z,101008.62
2019-05-25T20:44:34.276Z,101010.94
2019-05-25T20:47:02.897Z,101008.03
2019-05-25T20:49:31.493Z,101020.42
2019-05-25T20:52:00.148Z,101019.49
2019-05-25T20:54:28.749Z,101019.70
2019-05-25T20:56:57.343Z,101022.84
2019-05-25T20:59:26.044Z,101019.61
2019-05-25T21:01:54.641Z,101017.27
2019-05-25T21:04:23.284Z,101023.06
2019-05-25T21:06:51.865Z,101026.63
2019-05-25T21:09:20.580Z,101019.87
2019-05-25T21:11:49.248Z,101016.30
2019-05-25T21:14:17.890Z,101019.92
2019-05-25T21:16:46.475Z,101017.02
2019-05-25T21:19:15.070Z,101019.30
2019-05-25T21:21:43.657Z,101013.36
2019-05-25T21:24:12.266Z,101019.45
2019-05-25T21:26:40.858Z,101011.78
2019-05-25T21:29:09.478Z,101014.03
2019-05-25T21:31:38.078Z,101020.56
2019-05-25T21:34:06.662Z,101015.87
2019-05-25T21:36:37.545Z,101020.73
2019-05-25T21:39:07.492Z,101013.30
2019-05-25T21:41:36.089Z,101008.45
2019-05-25T21:44:04.845Z,101009.83
2019-05-25T21:46:33.467Z,101007.90
2019-05-25T21:49:02.046Z,101006.63
2019-05-25T21:51:30.747Z,101001.56
2019-05-25T21:53:59.310Z,101006.92
2019-05-25T21:56:27.983Z,101011.58
2019-05-25T21:58:56.554Z,101007.55
2019-05-25T22:01:25.270Z,101000.41
2019-05-25T22:03:53.843Z,101006.45
2019-05-25T22:06:24.516Z,101007.05
2019-05-25T22:08:52.807Z,101004.41
2019-05-25T22:11:22.037Z,101005.59
2019-05-25T22:13:50.603Z,101001.77
2019-05-25T22:16:21.943Z,101003.69
2019-05-25T22:18:50.517Z,101002.77
2019-05-25T22:21:19.520Z,101001.16
2019-05-25T22:23:48.093Z,101000.28
2019-05-25T22:26:16.761Z,100999.73
2019-05-25T22:28:45.567Z,101003.64
2019-05-25T22:31:14.171Z,100998.25
2019-05-25T22:33:42.777Z,100989.78
2019-05-25T22:36:11.439Z,100987.40
2019-05-25T22:38:40.048Z,100988.19
2019-05-25T22:41:08.718Z,100986.58
2019-05-25T22:43:37.352Z,100982.34
2019-05-25T22:46:05.945Z,100979.94
2019-05-25T22:48:34.571Z,100976.23
2019-05-25T22:51:03.142Z,100971.50
2019-05-25T22:53:31.836Z,100972.67
2019-05-25T22:56:00.390Z,100969.37
2019-05-25T22:58:31.354Z,100968.06
2019-05-25T23:00:59.932Z,100970.05
2019-05-25T23:03:28.645Z,100971.34
2019-05-25T23:05:57.222Z,100970.59
2019-05-25T23:08:25.828Z,100975.83
2019-05-25T23:10:54.394Z,100978.02
2019-05-25T23:13:23.039Z,100973.34
2019-05-25T23:15:51.613Z,100979.55
2019-05-25T23:18:20.362Z,100973.28
2019-05-25T23:20:49.415Z,100967.57
2019-05-25T23:23:18.043Z,100966.52
2019-05-25T23:25:46.633Z,100968.27
2019-05-25T23:28:15.305Z,100972.85
2019-05-25T23:30:43.875Z,100972.85
2019-05-25T23:33:12.789Z,100975.87
2019-05-25T23:35:41.373Z,100977.45
2019-05-25T23:38:10.032Z,100972.90
2019-05-25T23:40:38.592Z,100975.46
2019-05-25T23:43:07.225Z,100972.47
2019-05-25T23:45:35.799Z,100973.06
2019-05-25T23:48:04.549Z,100983.47
2019-05-25T23:50:33.120Z,100982.70
2019-05-25T23:53:01.763Z,100979.76
2019-05-25T23:55:30.412Z,100985.78
2019-05-25T23:57:59.058Z,100981.23
